createdAt,value
2023-10-19T00:00:51.736Z,3.59
2023-10-19T00:03:21.471Z,3.54
2023-10-19T00:05:48.126Z,3.58
2023-10-19T00:08:21.909Z,3.56
2023-10-19T00:11:11.759Z,3.60
2023-10-19T00:13:40.190Z,3.59
2023-10-19T00:16:23.513Z,3.62
2023-10-19T00:18:51.118Z,3.63
2023-10-19T00:21:30.069Z,3.64
2023-10-19T00:23:58.862Z,3.66
2023-10-19T00:26:26.760Z,3.68
2023-10-19T00:28:56.825Z,3.70
2023-10-19T00:31:24.184Z,3.76
2023-10-19T00:33:55.696Z,3.79
2023-10-19T00:36:23.869Z,3.80
2023-10-19T00:38:51.583Z,3.81
2023-10-19T00:41:31.275Z,3.77
2023-10-19T00:44:03.977Z,3.85
2023-10-19T00:46:44.992Z,3.87
2023-10-19T00:49:16.554Z,3.88
2023-10-19T00:52:19.115Z,3.86
2023-10-19T00:54:49.915Z,3.85
2023-10-19T00:57:20.954Z,3.85
2023-10-19T00:59:48.722Z,3.88
2023-10-19T01:02:19.295Z,3.84
2023-10-19T01:04:52.078Z,3.82
2023-10-19T01:07:28.483Z,3.80
2023-10-19T01:10:05.210Z,3.83
2023-10-19T01:12:39.970Z,3.81
2023-10-19T01:15:18.509Z,3.80
2023-10-19T01:17:59.297Z,3.78
2023-10-19T01:20:30.467Z,3.78
2023-10-19T01:23:11.945Z,3.77
2023-10-19T01:26:11.490Z,3.82
2023-10-19T01:28:42.149Z,3.85
2023-10-19T01:31:24.013Z,3.84
2023-10-19T01:33:51.526Z,3.89
2023-10-19T01:36:26.040Z,3.93
2023-10-19T01:38:55.519Z,3.95
2023-10-19T01:41:24.791Z,3.99
2023-10-19T01:43:56.334Z,3.99
2023-10-19T01:46:32.373Z,4.01
2023-10-19T01:48:58.973Z,3.97
2023-10-19T01:51:27.863Z,4.02
2023-10-19T01:53:56.684Z,4.07
2023-10-19T01:56:23.985Z,4.04
2023-10-19T01:58:55.863Z,4.09
2023-10-19T02:01:28.753Z,4.08
2023-10-19T02:04:04.899Z,4.09
2023-10-19T02:06:41.459Z,4.12
2023-10-19T02:09:25.053Z,4.12
2023-10-19T02:11:54.517Z,4.14
2023-10-19T02:14:21.762Z,4.10
2023-10-19T02:16:54.315Z,4.15
2023-10-19T02:19:22.875Z,4.18
2023-10-19T02:21:54.298Z,4.18
2023-10-19T02:24:21.330Z,4.17
2023-10-19T02:26:52.756Z,4.16
2023-10-19T02:29:19.811Z,4.13
2023-10-19T02:31:48.823Z,4.10
2023-10-19T02:34:18.353Z,4.09
2023-10-19T02:36:46.651Z,4.10
2023-10-19T02:39:15.537Z,4.10
2023-10-19T02:41:47.846Z,4.09
2023-10-19T02:44:20.294Z,4.09
2023-10-19T02:46:59.344Z,4.08
2023-10-19T02:49:27.522Z,4.03
2023-10-19T02:51:54.778Z,4.00
2023-10-19T02:54:24.348Z,3.95
2023-10-19T02:57:00.227Z,3.99
2023-10-19T02:59:29.966Z,3.98
2023-10-19T03:02:02.800Z,3.97
2023-10-19T03:04:30.466Z,3.93
2023-10-19T05:39:52.930Z,4.20
2023-10-19T05:42:19.620Z,4.24
2023-10-19T05:44:46.103Z,4.26
2023-10-19T05:47:12.663Z,4.28
2023-10-19T05:49:39.192Z,4.28
2023-10-19T05:52:05.790Z,4.28
2023-10-19T05:54:32.492Z,4.30
2023-10-19T05:56:59.768Z,4.36
2023-10-19T05:59:27.756Z,4.41
2023-10-19T06:01:54.645Z,4.46
2023-10-19T06:04:22.041Z,4.50
2023-10-19T06:06:50.060Z,4.56
2023-10-19T06:09:18.209Z,4.61
2023-10-19T06:11:44.992Z,4.63
2023-10-19T06:14:11.683Z,4.67
2023-10-19T06:16:38.570Z,4.77
2023-10-19T06:19:05.654Z,4.81
2023-10-19T06:21:34.014Z,4.86
2023-10-19T06:24:00.704Z,4.91
2023-10-19T06:26:27.361Z,4.93
2023-10-19T06:28:58.440Z,4.99
2023-10-19T06:31:25.281Z,5.00
2023-10-19T06:33:51.920Z,5.02
2023-10-19T06:36:19.064Z,5.05
2023-10-19T06:38:46.143Z,5.07
2023-10-19T06:41:14.032Z,5.13
2023-10-19T06:43:41.180Z,5.18
2023-10-19T06:46:08.010Z,5.17
2023-10-19T06:48:34.615Z,5.21
2023-10-19T06:51:01.422Z,5.20
2023-10-19T06:53:27.969Z,5.19
2023-10-19T06:55:55.860Z,5.27
2023-10-19T06:58:22.475Z,5.28
2023-10-19T07:00:57.629Z,5.33
2023-10-19T07:03:24.550Z,5.41
2023-10-19T07:05:54.396Z,5.49
2023-10-19T07:08:22.451Z,5.61
2023-10-19T07:10:51.033Z,5.71
2023-10-19T07:13:18.238Z,5.76
2023-10-19T07:15:50.390Z,5.88
2023-10-19T07:18:17.336Z,5.94
2023-10-19T07:20:44.447Z,5.99
2023-10-19T07:23:20.092Z,6.05
2023-10-19T07:25:49.202Z,6.13
2023-10-19T07:28:17.337Z,6.18
2023-10-19T07:30:44.877Z,6.26
2023-10-19T07:33:18.579Z,6.26
2023-10-19T07:35:47.938Z,6.23
2023-10-19T07:38:18.078Z,6.36
2023-10-19T07:40:44.993Z,6.48
2023-10-19T07:43:11.603Z,6.45
2023-10-19T07:45:38.297Z,6.51
2023-10-19T07:48:11.814Z,6.53
2023-10-19T07:50:41.972Z,6.64
2023-10-19T07:53:10.310Z,6.70
2023-10-19T07:55:38.846Z,6.77
2023-10-19T07:58:06.073Z,6.78
2023-10-19T08:00:34.920Z,6.76
2023-10-19T08:03:01.739Z,6.74
2023-10-19T08:05:28.920Z,6.73
2023-10-19T08:07:55.638Z,6.69
2023-10-19T08:10:22.327Z,6.74
2023-10-19T08:12:49.894Z,6.66
2023-10-19T08:15:18.339Z,6.71
2023-10-19T08:17:47.762Z,6.77
2023-10-19T08:20:18.662Z,6.79
2023-10-19T08:22:47.914Z,6.81
2023-10-19T08:25:17.969Z,6.76
2023-10-19T08:27:51.041Z,6.88
2023-10-19T08:30:23.908Z,6.93
2023-10-19T08:32:53.031Z,6.99
2023-10-19T08:35:27.517Z,7.04
2023-10-19T08:37:56.190Z,7.17
2023-10-19T08:40:24.701Z,7.18
2023-10-19T08:42:52.064Z,7.34
2023-10-19T08:45:19.203Z,7.41
2023-10-19T08:48:02.069Z,7.53
2023-10-19T08:50:34.722Z,7.56
2023-10-19T08:53:06.234Z,7.62
2023-10-19T08:55:48.697Z,7.66
2023-10-19T08:58:20.687Z,7.71
2023-10-19T09:01:07.447Z,7.76
2023-10-19T09:03:34.187Z,7.75
2023-10-19T09:06:06.350Z,7.78
2023-10-19T09:08:42.223Z,7.82
2023-10-19T09:11:10.198Z,7.70
2023-10-19T09:13:50.033Z,7.77
2023-10-19T09:16:18.640Z,7.79
2023-10-19T09:18:48.246Z,7.85
2023-10-19T09:21:25.878Z,7.93
2023-10-19T09:23:54.306Z,8.01
2023-10-19T09:26:22.718Z,8.10
2023-10-19T09:28:51.412Z,8.13
2023-10-19T09:31:23.792Z,8.21
2023-10-19T09:33:50.331Z,8.17
2023-10-19T09:36:17.236Z,8.23
2023-10-19T09:38:52.483Z,8.27
2023-10-19T09:41:21.207Z,8.32
2023-10-19T09:43:50.478Z,8.22
2023-10-19T09:46:23.788Z,8.26
2023-10-19T09:48:50.747Z,8.19
2023-10-19T09:51:20.334Z,8.21
2023-10-19T09:53:52.605Z,8.16
2023-10-19T09:56:22.803Z,8.19
2023-10-19T09:58:56.560Z,8.16
2023-10-19T10:01:23.237Z,8.18
2023-10-19T10:03:54.446Z,8.16
2023-10-19T10:06:52.180Z,8.24
2023-10-19T10:09:25.159Z,8.29
2023-10-19T10:11:54.624Z,8.43
2023-10-19T10:14:25.494Z,8.38
2023-10-19T10:17:04.769Z,8.41
2023-10-19T10:19:31.986Z,8.49
2023-10-19T10:22:22.455Z,8.57
2023-10-19T10:24:58.348Z,8.57
2023-10-19T10:27:25.040Z,8.53
2023-10-19T10:30:07.716Z,8.58
2023-10-19T10:32:46.398Z,8.72
2023-10-19T10:35:42.135Z,8.79
2023-10-19T10:38:10.692Z,8.79
2023-10-19T10:41:03.933Z,8.76
2023-10-19T10:43:31.102Z,8.76
2023-10-19T10:46:08.666Z,8.76
2023-10-19T10:48:42.667Z,8.71
2023-10-19T10:51:32.316Z,8.77
2023-10-19T10:53:59.804Z,8.80
2023-10-19T10:56:26.516Z,8.78
2023-10-19T10:58:53.311Z,8.88
2023-10-19T11:01:30.989Z,8.85
2023-10-19T11:04:15.547Z,8.81
2023-10-19T11:06:52.790Z,8.86
2023-10-19T11:09:19.793Z,8.92
2023-10-19T11:11:47.380Z,8.92
2023-10-19T11:14:14.557Z,8.95
2023-10-19T11:16:41.531Z,8.92
2023-10-19T11:19:08.252Z,8.98
2023-10-19T11:21:35.474Z,8.98
2023-10-19T11:24:03.071Z,9.01
2023-10-19T11:26:30.331Z,8.95
2023-10-19T11:29:05.472Z,8.91
2023-10-19T11:31:42.645Z,8.76
2023-10-19T11:34:10.878Z,8.64
2023-10-19T11:36:38.002Z,8.54
2023-10-19T11:39:05.744Z,8.58
2023-10-19T11:41:32.270Z,8.49
2023-10-19T11:43:58.899Z,8.57
2023-10-19T11:46:26.781Z,8.63
2023-10-19T11:48:53.563Z,8.83
2023-10-19T11:51:20.492Z,9.05
2023-10-19T11:53:47.086Z,9.24
2023-10-19T11:56:17.186Z,9.35
2023-10-19T11:58:45.079Z,9.40
2023-10-19T12:01:15.104Z,9.28
2023-10-19T12:03:43.085Z,9.16
2023-10-19T12:06:11.362Z,9.10
2023-10-19T12:08:39.345Z,9.12
2023-10-19T12:11:16.360Z,9.14
2023-10-19T12:13:48.157Z,9.17
2023-10-19T12:16:20.876Z,9.25
2023-10-19T12:18:49.744Z,9.28
2023-10-19T12:21:19.167Z,9.27
2023-10-19T12:23:55.671Z,9.27
2023-10-19T12:26:22.316Z,9.33
2023-10-19T12:28:50.574Z,9.32
2023-10-19T12:31:20.495Z,9.29
2023-10-19T12:33:47.473Z,9.28
2023-10-19T12:36:29.392Z,9.40
2023-10-19T12:38:56.380Z,9.44
2023-10-19T12:41:23.279Z,9.53
2023-10-19T12:43:53.531Z,9.45
2023-10-19T12:46:20.768Z,9.41
2023-10-19T12:48:50.193Z,9.34
2023-10-19T12:51:19.434Z,9.33
2023-10-19T12:53:47.396Z,9.26
2023-10-19T12:56:14.244Z,9.23
2023-10-19T12:58:42.596Z,9.15
2023-10-19T13:01:17.389Z,9.07
2023-10-19T13:03:46.660Z,9.04
2023-10-19T13:06:14.850Z,9.08
2023-10-19T13:08:44.364Z,9.02
2023-10-19T13:11:17.358Z,9.12
2023-10-19T13:13:44.993Z,9.14
2023-10-19T13:16:11.685Z,9.12
2023-10-19T13:18:41.274Z,9.07
2023-10-19T13:21:10.668Z,9.00
2023-10-19T13:23:37.350Z,8.90
2023-10-19T13:26:18.341Z,8.89
2023-10-19T13:28:46.028Z,9.05
2023-10-19T13:31:15.138Z,9.11
2023-10-19T13:33:42.895Z,9.22
2023-10-19T13:36:09.956Z,9.28
2023-10-19T13:38:36.720Z,9.25
2023-10-19T13:41:11.349Z,9.20
2023-10-19T13:43:40.338Z,9.10
2023-10-19T13:46:07.204Z,9.02
2023-10-19T13:48:34.021Z,9.06
2023-10-19T13:51:14.051Z,9.02
2023-10-19T13:53:41.332Z,8.84
2023-10-19T13:56:11.977Z,8.86
2023-10-19T13:58:39.237Z,8.75
2023-10-19T14:01:13.281Z,8.68
2023-10-19T14:03:41.796Z,8.61
2023-10-19T14:06:18.199Z,8.56
2023-10-19T14:08:44.802Z,8.48
2023-10-19T14:11:12.529Z,8.41
2023-10-19T14:13:41.863Z,8.41
2023-10-19T14:16:09.596Z,8.36
2023-10-19T14:18:37.949Z,8.41
2023-10-19T14:21:15.905Z,8.36
2023-10-19T14:23:43.754Z,8.32
2023-10-19T14:26:11.515Z,8.27
2023-10-19T14:28:38.406Z,8.16
2023-10-19T14:31:05.419Z,8.13
2023-10-19T14:33:32.367Z,8.10
2023-10-19T14:35:58.869Z,8.09
2023-10-19T14:38:28.536Z,8.08
2023-10-19T14:40:55.100Z,8.08
2023-10-19T14:43:21.959Z,8.02
2023-10-19T14:45:48.559Z,8.00
2023-10-19T14:48:16.098Z,7.97
2023-10-19T14:53:41.861Z,7.82
2023-10-19T14:56:09.159Z,7.80
2023-10-19T14:58:35.887Z,7.80
2023-10-19T15:01:02.495Z,7.84
2023-10-19T15:03:30.144Z,7.82
2023-10-19T15:05:58.946Z,7.77
2023-10-19T15:08:27.891Z,7.78
2023-10-19T15:10:55.675Z,7.77
2023-10-19T15:13:22.645Z,7.73
2023-10-19T15:15:49.231Z,7.77
2023-10-19T15:18:15.822Z,7.79
2023-10-19T15:20:42.789Z,7.75
2023-10-19T15:23:09.526Z,7.73
2023-10-19T15:25:37.955Z,7.69
2023-10-19T15:28:05.962Z,7.70
2023-10-19T15:30:32.698Z,7.64
2023-10-19T15:32:59.273Z,7.64
2023-10-19T15:35:28.568Z,7.62
2023-10-19T15:37:56.297Z,7.57
2023-10-19T15:40:25.148Z,7.54
2023-10-19T15:42:54.763Z,7.50
2023-10-19T15:45:22.859Z,7.52
2023-10-19T15:47:53.097Z,7.51
2023-10-19T15:50:19.664Z,7.51
2023-10-19T15:52:46.496Z,7.35
2023-10-19T15:55:15.352Z,7.31
2023-10-19T15:57:43.155Z,7.19
2023-10-19T16:00:15.240Z,7.13
2023-10-19T16:02:43.538Z,7.01
2023-10-19T16:05:16.625Z,6.91
2023-10-19T16:07:44.364Z,6.73
2023-10-19T16:10:11.867Z,6.68
2023-10-19T16:12:40.208Z,6.60
2023-10-19T16:15:10.377Z,6.53
2023-10-19T16:17:38.104Z,6.46
2023-10-19T16:20:07.663Z,6.41
2023-10-19T16:22:35.033Z,6.35
2023-10-19T16:25:01.920Z,6.32
2023-10-19T16:27:28.817Z,6.29
2023-10-19T16:29:55.896Z,6.30
2023-10-19T16:32:23.662Z,6.27
2023-10-19T16:34:50.885Z,6.26
2023-10-19T16:37:18.634Z,6.27
2023-10-19T16:39:45.642Z,6.28
2023-10-19T16:42:12.939Z,6.25
2023-10-19T16:44:39.792Z,6.24
2023-10-19T16:47:06.989Z,6.23
2023-10-19T16:49:36.230Z,6.23
2023-10-19T16:52:03.227Z,6.22
2023-10-19T16:54:30.642Z,6.22
2023-10-19T16:56:57.980Z,6.22
2023-10-19T16:59:24.857Z,6.18
2023-10-19T17:01:51.567Z,6.24
2023-10-19T17:04:18.871Z,6.23
2023-10-19T17:06:46.463Z,6.23
2023-10-19T17:09:21.260Z,6.20
2023-10-19T17:11:49.573Z,6.20
2023-10-19T17:14:17.303Z,6.22
2023-10-19T17:16:45.662Z,6.26
2023-10-19T17:19:12.531Z,6.25
2023-10-19T17:21:43.676Z,6.22
2023-10-19T17:24:10.561Z,6.23
2023-10-19T17:26:37.124Z,6.26
2023-10-19T17:29:04.179Z,6.27
2023-10-19T17:31:30.859Z,6.24
2023-10-19T17:33:58.163Z,6.25
2023-10-19T17:36:25.536Z,6.22
2023-10-19T17:38:52.563Z,6.15
2023-10-19T17:41:20.894Z,6.16
2023-10-19T17:43:48.527Z,6.13
2023-10-19T17:46:16.134Z,6.11
2023-10-19T17:48:44.672Z,6.11
2023-10-19T17:51:12.620Z,6.10
2023-10-19T17:53:40.228Z,6.11
2023-10-19T17:56:07.743Z,6.14
2023-10-19T17:58:35.318Z,6.17
2023-10-19T18:01:06.511Z,6.18
2023-10-19T18:03:34.985Z,6.15
2023-10-19T18:06:02.744Z,6.14
2023-10-19T18:08:30.309Z,6.12
2023-10-19T18:10:57.701Z,6.12
2023-10-19T18:13:24.725Z,6.10
2023-10-19T18:15:53.464Z,6.07
2023-10-19T18:18:22.325Z,6.08
2023-10-19T18:20:49.328Z,6.07
2023-10-19T18:23:16.259Z,6.07
2023-10-19T18:25:43.789Z,6.06
2023-10-19T18:28:11.232Z,6.06
2023-10-19T18:30:38.150Z,6.03
2023-10-19T18:33:07.721Z,6.03
2023-10-19T18:35:35.884Z,6.04
2023-10-19T18:38:02.692Z,6.02
2023-10-19T18:40:34.898Z,6.02
2023-10-19T18:43:02.336Z,6.02
2023-10-19T18:45:28.967Z,6.02
2023-10-19T18:47:56.456Z,6.01
2023-10-19T18:52:53.719Z,6.02
2023-10-19T18:55:23.960Z,6.01
2023-10-19T18:57:51.341Z,6.02
2023-10-19T19:00:25.257Z,6.02
2023-10-19T19:02:53.060Z,6.04
2023-10-19T19:05:20.117Z,6.04
2023-10-19T19:07:47.345Z,6.03
2023-10-19T19:10:14.241Z,6.01
2023-10-19T19:12:40.954Z,6.03
2023-10-19T19:15:08.103Z,6.03
2023-10-19T19:17:34.767Z,6.04
2023-10-19T19:20:03.258Z,6.02
2023-10-19T19:22:32.523Z,6.02
2023-10-19T19:24:59.357Z,6.00
2023-10-19T19:27:26.011Z,5.98
2023-10-19T19:29:52.618Z,6.01
2023-10-19T19:32:19.228Z,6.00
2023-10-19T19:34:47.344Z,6.02
2023-10-19T19:37:14.674Z,6.00
2023-10-19T19:39:45.659Z,6.00
2023-10-19T19:42:12.782Z,6.00
2023-10-19T19:44:40.427Z,5.95
2023-10-19T19:47:07.696Z,5.98
2023-10-19T19:49:34.762Z,6.03
2023-10-19T19:52:02.786Z,6.05
2023-10-19T19:54:29.541Z,6.04
2023-10-19T19:56:56.167Z,6.03
2023-10-19T19:59:23.493Z,6.01
2023-10-19T20:01:50.603Z,6.00
2023-10-19T20:04:17.459Z,5.99
2023-10-19T20:06:44.140Z,6.04
2023-10-19T20:09:14.554Z,6.07
2023-10-19T20:11:41.773Z,6.10
2023-10-19T20:14:08.463Z,6.11
2023-10-19T20:16:35.491Z,6.07
2023-10-19T20:19:02.185Z,6.11
2023-10-19T20:21:32.982Z,6.12
2023-10-19T20:24:04.403Z,6.10
2023-10-19T20:26:30.951Z,6.08
2023-10-19T20:28:57.796Z,6.10
2023-10-19T20:31:27.497Z,6.08
2023-10-19T20:33:54.303Z,6.10
2023-10-19T20:36:20.934Z,6.08
2023-10-19T20:38:48.755Z,6.08
2023-10-19T20:41:15.451Z,6.12
2023-10-19T20:43:44.012Z,6.07
2023-10-19T20:46:10.813Z,6.08
2023-10-19T20:48:37.529Z,6.06
2023-10-19T20:51:06.840Z,6.08
2023-10-19T20:53:34.089Z,6.08
2023-10-19T20:56:01.899Z,6.07
2023-10-19T20:58:29.984Z,6.05
2023-10-19T21:00:56.577Z,6.06
2023-10-19T21:03:23.234Z,6.06
2023-10-19T21:05:49.927Z,6.04
2023-10-19T21:08:17.010Z,6.08
2023-10-19T21:10:43.674Z,6.07
2023-10-19T21:13:10.340Z,6.05
2023-10-19T21:15:36.857Z,6.05
2023-10-19T21:18:03.604Z,6.05
2023-10-19T21:20:30.236Z,6.06
2023-10-19T21:22:57.119Z,6.04
2023-10-19T21:25:26.609Z,6.10
2023-10-19T21:27:54.223Z,6.11
2023-10-19T21:30:20.799Z,6.10
2023-10-19T21:32:47.966Z,6.12
2023-10-19T21:35:16.331Z,6.15
2023-10-19T21:37:43.456Z,6.16
2023-10-19T21:40:12.353Z,6.15
2023-10-19T21:42:40.530Z,6.18
2023-10-19T21:45:09.239Z,6.20
2023-10-19T21:47:36.081Z,6.24
2023-10-19T21:50:05.841Z,6.24
2023-10-19T21:52:32.545Z,6.29
2023-10-19T21:54:59.124Z,6.30
2023-10-19T21:57:26.739Z,6.35
2023-10-19T21:59:53.670Z,6.36
2023-10-19T22:02:20.603Z,6.35
2023-10-19T22:04:47.334Z,6.40
2023-10-19T22:07:16.795Z,6.41
2023-10-19T22:09:43.668Z,6.44
2023-10-19T22:12:14.561Z,6.42
2023-10-19T22:14:42.139Z,6.46
2023-10-19T22:17:08.762Z,6.46
2023-10-19T22:19:35.363Z,6.44
2023-10-19T22:22:01.861Z,6.44
2023-10-19T22:24:29.473Z,6.44
2023-10-19T22:26:56.579Z,6.44
2023-10-19T22:29:23.349Z,6.48
2023-10-19T22:31:52.407Z,6.46
2023-10-19T22:34:19.935Z,6.45
2023-10-19T22:36:46.840Z,6.44
2023-10-19T22:39:13.763Z,6.45
2023-10-19T22:41:42.781Z,6.41
2023-10-19T22:44:09.668Z,6.42
2023-10-19T22:46:36.645Z,6.39
2023-10-19T22:49:03.453Z,6.41
2023-10-19T22:51:30.534Z,6.38
2023-10-19T22:53:58.415Z,6.38
2023-10-19T22:56:25.174Z,6.40
2023-10-19T22:58:55.214Z,6.38
2023-10-19T23:01:22.375Z,6.39
2023-10-19T23:03:49.172Z,6.37
2023-10-19T23:06:15.728Z,6.35
2023-10-19T23:08:42.920Z,6.39
2023-10-19T23:11:10.624Z,6.35
2023-10-19T23:13:42.589Z,6.39
2023-10-19T23:16:09.414Z,6.38
2023-10-19T23:18:38.521Z,6.37
2023-10-19T23:21:08.051Z,6.39
2023-10-19T23:23:35.694Z,6.39
2023-10-19T23:26:04.385Z,6.38
2023-10-19T23:28:34.658Z,6.36
2023-10-19T23:31:11.006Z,6.36
2023-10-19T23:33:37.920Z,6.37
2023-10-19T23:36:04.738Z,6.33
2023-10-19T23:38:31.255Z,6.31
2023-10-19T23:40:57.895Z,6.31
2023-10-19T23:43:25.636Z,6.30
2023-10-19T23:45:52.851Z,6.25
2023-10-19T23:48:21.279Z,6.27
2023-10-19T23:50:49.113Z,6.26
2023-10-19T23:53:17.513Z,6.27
2023-10-19T23:55:47.522Z,6.24
2023-10-19T23:58:15.567Z,6.23
